createdAt,value
2023-09-10T00:00:05.302Z,19.77
2023-09-10T00:02:33.957Z,19.00
2023-09-10T00:05:02.221Z,18.30
2023-09-10T00:07:30.661Z,20.70
2023-09-10T00:09:58.892Z,19.25
2023-09-10T00:12:28.662Z,19.95
2023-09-10T00:14:56.917Z,19.70
2023-09-10T00:17:25.284Z,19.95
2023-09-10T00:19:53.795Z,20.48
2023-09-10T00:22:22.165Z,19.00
2023-09-10T00:24:50.471Z,17.38
2023-09-10T00:27:18.681Z,18.00
2023-09-10T00:29:48.508Z,17.33
2023-09-10T00:32:16.817Z,15.10
2023-09-10T00:34:45.261Z,15.30
2023-09-10T00:37:14.092Z,16.75
2023-09-10T00:39:42.151Z,15.40
2023-09-10T00:42:10.523Z,15.80
2023-09-10T00:44:40.073Z,15.82
2023-09-10T00:47:11.457Z,14.60
2023-09-10T00:49:40.092Z,14.80
2023-09-10T00:52:08.886Z,13.93
2023-09-10T00:54:37.917Z,15.20
2023-09-10T00:57:07.587Z,13.63
2023-09-10T00:59:36.811Z,14.25
2023-09-10T01:02:06.513Z,14.52
2023-09-10T01:04:36.641Z,15.65
2023-09-10T01:07:05.169Z,15.20
2023-09-10T01:09:33.880Z,15.90
2023-09-10T01:12:13.726Z,14.40
2023-09-10T01:14:47.512Z,16.48
2023-09-10T01:17:23.829Z,18.08
2023-09-10T01:20:17.171Z,17.65
2023-09-10T01:22:59.487Z,19.63
2023-09-10T01:27:58.118Z,17.00
2023-09-10T01:30:26.542Z,19.55
2023-09-10T01:33:01.408Z,18.50
2023-09-10T01:35:36.782Z,18.98
2023-09-10T01:38:10.260Z,19.65
2023-09-10T01:40:45.504Z,19.67
2023-09-10T01:43:14.025Z,17.52
2023-09-10T01:45:42.645Z,16.58
2023-09-10T01:48:11.049Z,16.67
2023-09-10T01:50:39.687Z,17.45
2023-09-10T01:53:08.071Z,15.75
2023-09-10T01:55:37.165Z,16.08
2023-09-10T01:58:06.971Z,14.85
2023-09-10T02:00:35.476Z,14.10
2023-09-10T02:03:05.036Z,16.95
2023-09-10T02:05:33.448Z,17.02
2023-09-10T02:08:01.884Z,18.85
2023-09-10T02:10:30.907Z,18.45
2023-09-10T02:12:59.370Z,18.42
2023-09-10T02:15:29.187Z,19.20
2023-09-10T02:17:58.036Z,19.20
2023-09-10T02:20:26.372Z,19.40
2023-09-10T02:23:59.056Z,19.08
2023-09-10T02:26:27.413Z,18.58
2023-09-10T02:28:55.731Z,17.35
2023-09-10T02:31:26.663Z,19.02
2023-09-10T02:34:01.475Z,20.13
2023-09-10T02:36:30.308Z,20.63
2023-09-10T02:38:58.682Z,19.75
2023-09-10T02:41:26.964Z,19.10
2023-09-10T02:43:55.334Z,19.52
2023-09-10T02:46:26.512Z,19.40
2023-09-10T02:48:54.736Z,19.03
2023-09-10T02:51:23.083Z,17.55
2023-09-10T02:53:51.498Z,18.10
2023-09-10T02:56:20.119Z,18.00
2023-09-10T02:58:48.683Z,18.23
2023-09-10T03:01:17.059Z,19.92
2023-09-10T03:03:46.802Z,17.95
2023-09-10T03:06:15.648Z,19.05
2023-09-10T03:08:46.060Z,17.52
2023-09-10T03:11:14.493Z,17.23
2023-09-10T03:13:42.809Z,17.92
2023-09-10T03:16:11.075Z,18.40
2023-09-10T03:18:39.488Z,20.55
2023-09-10T03:21:09.425Z,19.77
2023-09-10T03:23:37.874Z,21.05
2023-09-10T03:26:06.636Z,20.92
2023-09-10T03:28:34.916Z,21.15
2023-09-10T03:31:03.664Z,20.75
2023-09-10T03:33:31.995Z,20.27
2023-09-10T03:36:00.520Z,22.15
2023-09-10T03:38:30.213Z,22.50
2023-09-10T03:40:58.691Z,21.83
2023-09-10T03:43:27.128Z,22.05
2023-09-10T03:45:56.642Z,22.20
2023-09-10T03:48:25.423Z,21.70
2023-09-10T03:50:53.768Z,22.17
2023-09-10T03:53:23.685Z,20.83
2023-09-10T03:55:53.406Z,22.75
2023-09-10T03:58:22.353Z,21.58
2023-09-10T04:00:50.931Z,22.70
2023-09-10T04:03:19.298Z,22.70
2023-09-10T04:05:48.004Z,24.52
2023-09-10T04:08:16.403Z,23.10
2023-09-10T04:10:44.857Z,22.88
2023-09-10T04:13:14.787Z,23.27
2023-09-10T04:15:43.141Z,24.33
2023-09-10T04:18:11.473Z,23.00
2023-09-10T04:20:39.796Z,22.58
2023-09-10T04:23:08.199Z,23.05
2023-09-10T04:25:36.576Z,21.63
2023-09-10T04:28:05.507Z,20.95
2023-09-10T04:30:35.226Z,24.25
2023-09-10T04:33:05.078Z,22.95
2023-09-10T04:35:33.341Z,22.95
2023-09-10T04:38:01.780Z,22.35
2023-09-10T04:40:30.050Z,24.02
2023-09-10T04:42:58.368Z,24.65
2023-09-10T04:45:26.652Z,24.13
2023-09-10T04:47:58.080Z,24.13
2023-09-10T04:50:26.667Z,23.80
2023-09-10T04:52:55.213Z,22.38
2023-09-10T04:55:23.756Z,24.02
2023-09-10T04:57:52.577Z,22.98
2023-09-10T05:00:21.352Z,22.98
2023-09-10T05:02:50.065Z,24.40
2023-09-10T05:05:21.013Z,24.70
2023-09-10T05:07:50.565Z,24.55
2023-09-10T05:10:19.747Z,24.45
2023-09-10T05:12:48.360Z,24.40
2023-09-10T05:15:16.855Z,24.48
2023-09-10T05:17:45.456Z,22.42
2023-09-10T05:20:15.047Z,24.70
2023-09-10T05:22:45.198Z,23.02
2023-09-10T05:25:13.723Z,23.35
2023-09-10T05:27:42.336Z,21.58
2023-09-10T05:30:11.241Z,24.02
2023-09-10T05:32:40.553Z,25.45
2023-09-10T05:35:09.825Z,23.60
2023-09-10T05:37:38.419Z,23.58
2023-09-10T05:40:10.183Z,24.55
2023-09-10T05:42:38.691Z,24.73
2023-09-10T05:45:08.442Z,24.67
2023-09-10T05:47:36.944Z,25.25
2023-09-10T05:50:06.773Z,25.23
2023-09-10T05:52:35.353Z,25.70
2023-09-10T05:55:03.845Z,25.05
2023-09-10T05:57:34.404Z,23.48
2023-09-10T06:00:02.930Z,24.48
2023-09-10T06:02:32.431Z,23.73
2023-09-10T06:05:01.072Z,24.35
2023-09-10T06:07:29.741Z,24.48
2023-09-10T06:09:58.093Z,24.63
2023-09-10T06:12:26.552Z,22.98
2023-09-10T06:14:56.411Z,23.35
2023-09-10T06:17:25.072Z,23.20
2023-09-10T06:19:53.680Z,22.77
2023-09-10T06:22:22.371Z,22.67
2023-09-10T06:24:50.780Z,21.73
2023-09-10T06:31:15.176Z,21.45
2023-09-10T06:33:44.013Z,21.98
2023-09-10T06:36:13.040Z,20.48
2023-09-10T06:38:42.063Z,20.60
2023-09-10T06:41:11.265Z,20.88
2023-09-10T06:43:42.254Z,19.48
2023-09-10T06:46:18.394Z,20.60
2023-09-10T06:48:46.990Z,19.48
2023-09-10T06:51:24.568Z,20.27
2023-09-10T06:53:55.514Z,20.23
2023-09-10T06:56:39.334Z,19.25
2023-09-10T06:59:07.908Z,19.75
2023-09-10T07:01:39.961Z,18.65
2023-09-10T07:07:03.243Z,22.13
2023-09-10T07:09:33.620Z,21.98
2023-09-10T07:12:02.062Z,18.33
2023-09-10T07:14:30.515Z,17.67
2023-09-10T07:20:00.885Z,17.20
2023-09-10T07:22:29.542Z,17.73
2023-09-10T07:24:58.397Z,16.45
2023-09-10T07:27:43.815Z,17.30
2023-09-10T07:30:12.937Z,17.15
2023-09-10T07:32:43.254Z,16.83
2023-09-10T07:35:11.961Z,17.33
2023-09-10T07:37:40.470Z,16.58
2023-09-10T07:40:11.191Z,15.55
2023-09-10T07:42:53.708Z,17.52
2023-09-10T07:45:22.403Z,15.75
2023-09-10T07:48:03.580Z,15.85
2023-09-10T07:51:13.257Z,16.60
2023-09-10T07:53:25.398Z,15.77
2023-09-10T07:55:57.549Z,17.55
2023-09-10T07:58:26.695Z,16.00
2023-09-10T08:01:44.627Z,17.08
2023-09-10T08:10:07.489Z,20.30
2023-09-10T08:12:36.149Z,20.90
2023-09-10T08:15:06.243Z,20.45
2023-09-10T08:17:37.044Z,21.00
2023-09-10T08:20:11.451Z,21.33
2023-09-10T08:22:40.272Z,21.63
2023-09-10T08:25:09.741Z,21.55
2023-09-10T08:27:38.516Z,22.42
2023-09-10T08:30:08.789Z,22.23
2023-09-10T08:33:08.774Z,23.58
2023-09-10T08:35:50.052Z,24.52
2023-09-10T08:38:18.962Z,23.47
2023-09-10T08:40:58.358Z,24.40
2023-09-10T08:43:38.549Z,23.55
2023-09-10T08:46:11.871Z,23.90
2023-09-10T08:48:43.113Z,22.58
2023-09-10T08:51:13.952Z,23.08
2023-09-10T08:53:44.602Z,23.52
2023-09-10T08:56:14.196Z,20.98
2023-09-10T08:58:45.107Z,19.85
2023-09-10T09:01:15.398Z,19.67
2023-09-10T09:03:44.780Z,20.00
2023-09-10T09:06:15.325Z,19.63
2023-09-10T09:08:50.346Z,19.38
2023-09-10T09:11:20.433Z,18.40
2023-09-10T09:13:51.229Z,18.98
2023-09-10T09:16:21.831Z,18.17
2023-09-10T09:18:51.474Z,18.23
2023-09-10T09:21:23.057Z,17.63
2023-09-10T09:23:54.169Z,17.38
2023-09-10T09:26:24.972Z,18.63
2023-09-10T09:28:54.866Z,17.70
2023-09-10T09:31:24.380Z,17.13
2023-09-10T09:33:53.544Z,17.75
2023-09-10T09:36:31.824Z,16.42
2023-09-10T09:39:01.887Z,14.68
2023-09-10T09:41:31.610Z,14.80
2023-09-10T09:44:04.278Z,13.80
2023-09-10T09:46:34.658Z,12.30
2023-09-10T09:49:08.441Z,9.68
2023-09-10T09:51:47.610Z,7.75
2023-09-10T09:54:21.522Z,6.20
2023-09-10T09:57:23.512Z,7.15
2023-09-10T10:00:02.841Z,6.97
2023-09-10T10:03:03.871Z,7.40
2023-09-10T10:06:17.119Z,7.20
2023-09-10T10:19:23.539Z,8.18
2023-09-10T10:22:56.812Z,7.68
2023-09-10T10:25:52.527Z,9.85
2023-09-10T10:29:09.710Z,6.68
2023-09-10T10:31:47.740Z,5.85
2023-09-10T10:35:23.863Z,5.10
2023-09-10T10:38:23.250Z,5.25
2023-09-10T10:41:32.863Z,4.78
2023-09-10T10:44:32.706Z,4.22
2023-09-10T10:50:33.459Z,3.80
2023-09-10T11:06:08.774Z,3.05
2023-09-10T11:26:37.148Z,4.13
2023-09-10T11:29:32.067Z,4.93
2023-09-10T11:32:29.360Z,3.17
2023-09-10T11:35:37.268Z,3.30
2023-09-10T11:49:29.378Z,2.92
2023-09-10T11:56:35.953Z,2.63
2023-09-10T12:25:35.489Z,2.17
2023-09-10T13:01:03.611Z,2.15
2023-09-10T13:08:20.570Z,2.38
2023-09-10T14:01:49.713Z,2.72
2023-09-10T14:51:45.781Z,2.13
2023-09-10T14:54:26.462Z,2.70
2023-09-10T14:57:21.968Z,1.80
2023-09-10T15:03:25.061Z,2.10
2023-09-10T15:06:29.629Z,1.83
2023-09-10T15:09:15.683Z,1.88
2023-09-10T15:11:48.285Z,1.90
2023-09-10T15:14:31.926Z,1.80
2023-09-10T15:17:32.347Z,1.80
2023-09-10T15:20:13.256Z,1.98
2023-09-10T15:22:52.809Z,1.75
2023-09-10T15:25:53.304Z,1.40
2023-09-10T15:32:24.368Z,1.70
2023-09-10T15:35:25.212Z,1.50
2023-09-10T15:38:09.233Z,1.65
2023-09-10T15:41:27.711Z,1.60
2023-09-10T15:44:00.866Z,1.60
2023-09-10T15:46:34.076Z,1.80
2023-09-10T15:49:14.527Z,2.05
2023-09-10T15:51:44.432Z,2.17
2023-09-10T15:54:27.602Z,1.70
2023-09-10T15:57:01.782Z,1.85
2023-09-10T15:59:35.070Z,1.98
2023-09-10T16:02:28.031Z,1.98
2023-09-10T16:05:19.542Z,2.33
2023-09-10T16:08:28.818Z,1.70
2023-09-10T16:11:02.429Z,2.17
2023-09-10T16:13:32.349Z,1.70
2023-09-10T16:16:36.951Z,2.20
2023-09-10T16:19:30.435Z,2.42
2023-09-10T16:22:28.562Z,1.60
2023-09-10T16:25:31.041Z,1.83
2023-09-10T16:31:17.440Z,1.90
2023-09-10T16:33:55.961Z,2.10
2023-09-10T16:37:22.224Z,1.70
2023-09-10T16:43:08.548Z,2.00
2023-09-10T16:45:38.292Z,2.50
2023-09-10T16:48:07.365Z,2.20
2023-09-10T16:51:01.158Z,2.20
2023-09-10T16:53:31.378Z,1.63
2023-09-10T16:56:04.342Z,1.73
2023-09-10T16:58:36.122Z,1.75
2023-09-10T17:01:05.941Z,2.05
2023-09-10T17:03:34.648Z,2.30
2023-09-10T17:06:09.144Z,1.80
2023-09-10T17:08:38.192Z,1.80
2023-09-10T17:11:06.936Z,1.77
2023-09-10T17:14:07.707Z,1.63
2023-09-10T17:16:38.680Z,1.70
2023-09-10T17:22:00.032Z,1.90
2023-09-10T17:24:40.041Z,2.00
2023-09-10T17:27:26.141Z,1.95
2023-09-10T17:30:12.034Z,2.10
2023-09-10T17:32:43.596Z,2.55
2023-09-10T17:35:12.179Z,1.70
2023-09-10T17:37:40.729Z,1.90
2023-09-10T17:40:11.875Z,1.90
2023-09-10T17:42:40.745Z,2.00
2023-09-10T17:45:11.210Z,2.17
2023-09-10T17:47:40.671Z,1.75
2023-09-10T17:50:11.439Z,2.10
2023-09-10T17:52:39.716Z,2.10
2023-09-10T17:55:08.270Z,2.10
2023-09-10T17:57:36.582Z,2.45
2023-09-10T18:00:07.690Z,2.72
2023-09-10T18:02:36.193Z,2.80
2023-09-10T18:05:05.031Z,2.42
2023-09-10T18:07:36.362Z,2.15
2023-09-10T18:10:05.148Z,2.20
2023-09-10T18:12:34.143Z,2.30
2023-09-10T18:15:02.456Z,2.15
2023-09-10T18:17:31.354Z,2.50
2023-09-10T18:19:59.973Z,2.90
2023-09-10T18:22:28.545Z,2.95
2023-09-10T18:24:58.199Z,3.13
2023-09-10T18:27:26.469Z,2.58
2023-09-10T18:29:54.800Z,2.90
2023-09-10T18:32:23.112Z,2.70
2023-09-10T18:34:52.051Z,2.97
2023-09-10T18:37:20.460Z,3.13
2023-09-10T18:39:48.832Z,3.20
2023-09-10T18:42:18.636Z,3.55
2023-09-10T18:44:47.143Z,3.67
2023-09-10T18:47:16.129Z,3.17
2023-09-10T18:49:44.450Z,3.88
2023-09-10T18:52:15.691Z,3.08
2023-09-10T18:54:44.697Z,3.05
2023-09-10T18:57:15.306Z,3.28
2023-09-10T18:59:45.383Z,3.47
2023-09-10T19:02:13.763Z,3.15
2023-09-10T19:04:42.123Z,4.05
2023-09-10T19:07:11.541Z,4.50
2023-09-10T19:09:39.962Z,4.88
2023-09-10T19:12:08.753Z,4.50
2023-09-10T19:14:36.963Z,4.53
2023-09-10T19:17:06.975Z,4.53
2023-09-10T19:19:35.267Z,4.40
2023-09-10T19:22:03.850Z,4.00
2023-09-10T19:24:32.231Z,4.05
2023-09-10T19:27:00.510Z,3.60
2023-09-10T19:29:29.243Z,4.15
2023-09-10T19:31:59.825Z,3.75
2023-09-10T19:34:29.416Z,3.15
2023-09-10T19:36:57.568Z,3.63
2023-09-10T19:39:27.750Z,3.83
2023-09-10T19:41:55.992Z,4.78
2023-09-10T19:44:24.760Z,4.07
2023-09-10T19:46:53.093Z,4.80
2023-09-10T19:49:21.367Z,5.97
2023-09-10T19:51:53.899Z,4.60
2023-09-10T19:54:22.204Z,4.20
2023-09-10T19:56:50.404Z,4.20
2023-09-10T19:59:18.784Z,4.75
2023-09-10T20:01:47.146Z,4.82
2023-09-10T20:04:16.235Z,4.65
2023-09-10T20:06:44.568Z,5.05
2023-09-10T20:09:14.458Z,5.10
2023-09-10T20:11:43.360Z,5.70
2023-09-10T20:14:11.738Z,4.88
2023-09-10T20:16:39.965Z,4.90
2023-09-10T20:19:08.609Z,4.22
2023-09-10T20:21:36.871Z,5.35
2023-09-10T20:24:06.635Z,4.70
2023-09-10T20:26:36.317Z,5.18
2023-09-10T20:29:04.560Z,5.03
2023-09-10T20:31:32.730Z,4.80
2023-09-10T20:34:00.948Z,4.40
2023-09-10T20:36:29.365Z,4.53
2023-09-10T20:38:57.743Z,4.45
2023-09-10T20:41:25.980Z,4.10
2023-09-10T20:43:55.770Z,4.72
2023-09-10T20:46:24.018Z,3.63
2023-09-10T20:48:52.301Z,3.78
2023-09-10T20:51:28.918Z,4.70
2023-09-10T20:53:57.375Z,4.07
2023-09-10T20:56:25.608Z,3.67
2023-09-10T20:58:55.758Z,4.47
2023-09-10T21:01:23.981Z,4.60
2023-09-10T21:03:52.481Z,4.20
2023-09-10T21:06:21.139Z,4.82
2023-09-10T21:08:52.588Z,4.35
2023-09-10T21:11:21.076Z,4.60
2023-09-10T21:13:49.521Z,4.55
2023-09-10T21:16:19.228Z,4.95
2023-09-10T21:18:49.500Z,5.47
2023-09-10T21:21:18.153Z,5.30
2023-09-10T21:23:46.541Z,5.25
2023-09-10T21:26:14.835Z,5.18
2023-09-10T21:28:43.510Z,5.60
2023-09-10T21:31:14.465Z,6.55
2023-09-10T21:33:44.343Z,5.75
2023-09-10T21:36:12.583Z,4.85
2023-09-10T21:38:41.327Z,5.53
2023-09-10T21:41:09.973Z,4.80
2023-09-10T21:43:38.456Z,5.40
2023-09-10T21:46:09.583Z,5.78
2023-09-10T21:48:37.991Z,5.57
2023-09-10T21:51:07.651Z,4.80
2023-09-10T21:53:35.915Z,5.05
2023-09-10T21:56:05.049Z,6.00
2023-09-10T21:58:33.327Z,5.60
2023-09-10T22:01:01.585Z,5.45
2023-09-10T22:03:29.916Z,5.50
2023-09-10T22:05:59.412Z,5.72
2023-09-10T22:08:29.260Z,5.43
2023-09-10T22:11:00.769Z,6.03
2023-09-10T22:13:29.023Z,5.72
2023-09-10T22:15:58.119Z,6.15
2023-09-10T22:18:27.110Z,6.40
2023-09-10T22:20:55.786Z,6.90
2023-09-10T22:23:24.470Z,6.32
2023-09-10T22:25:54.186Z,6.32
2023-09-10T22:28:23.775Z,6.10
2023-09-10T22:30:52.250Z,5.75
2023-09-10T22:33:21.107Z,6.38
2023-09-10T22:35:49.480Z,6.25
2023-09-10T22:38:17.897Z,5.85
2023-09-10T22:40:46.714Z,6.50
2023-09-10T22:43:16.278Z,6.60
2023-09-10T22:45:44.282Z,6.10
2023-09-10T22:48:12.475Z,6.30
2023-09-10T22:50:40.943Z,5.88
2023-09-10T22:53:09.139Z,6.03
2023-09-10T22:55:37.283Z,5.75
2023-09-10T22:58:05.766Z,5.57
2023-09-10T23:00:36.801Z,6.30
2023-09-10T23:03:05.359Z,6.20
2023-09-10T23:05:33.938Z,6.60
2023-09-10T23:08:02.164Z,6.88
2023-09-10T23:10:30.431Z,7.03
2023-09-10T23:12:59.389Z,6.45
2023-09-10T23:15:27.844Z,6.90
2023-09-10T23:17:58.026Z,6.85
2023-09-10T23:20:26.382Z,5.53
2023-09-10T23:23:01.165Z,5.95
2023-09-10T23:25:29.636Z,5.78
2023-09-10T23:27:57.890Z,6.50
2023-09-10T23:30:26.408Z,6.53
2023-09-10T23:32:56.541Z,7.10
2023-09-10T23:35:26.496Z,6.00
2023-09-10T23:37:54.774Z,6.38
2023-09-10T23:40:22.910Z,6.35
2023-09-10T23:42:51.193Z,6.47
2023-09-10T23:45:19.844Z,6.13
2023-09-10T23:47:48.158Z,7.38
2023-09-10T23:50:16.871Z,6.45
2023-09-10T23:52:46.467Z,6.60
2023-09-10T23:55:14.648Z,6.72
2023-09-10T23:57:43.248Z,7.13
